Alma, New York
Current Conditions -  °F | °C
As of 11:56 PM on Sunday 19 Oct 2014 (Local Time) from KELZ Reporting Station
Clear Clear  
Wind Chill:   Ceiling: Unl
Heat Index:   Visibility: 10mi
Dew Point: -1°   Wind: 5mph
Humidity: 76%   Direction: 250°WSW
Pressure: 30.02"   Gusts: NA
Location:  42.01°N, 78.06°W
Report Text: KELZ 200356Z AUTO 25004KT 10SM CLR 03/M01 A3002 RMK AO2 SLP184 T00281011
Loading
Personal Weather Stations






























Interactive Weather Map
Tropical Storm Tracking
New forecast layout! Learn more

10-Day Weather Forecast

Advertisements
Track Severe Weather on mobile